createdAt,value
2019-03-11T00:03:19.119Z,5.44
2019-03-11T00:08:25.142Z,8.08
2019-03-11T00:13:31.163Z,5.88
2019-03-11T00:18:37.192Z,9.17
2019-03-11T00:23:43.188Z,8.78
2019-03-11T00:28:49.177Z,4.05
2019-03-11T00:33:55.335Z,2.05
2019-03-11T00:39:01.379Z,1.66
2019-03-11T00:44:07.439Z,1.43
2019-03-11T00:49:13.478Z,1.65
2019-03-11T00:54:19.505Z,1.69
2019-03-11T00:59:25.513Z,1.14
2019-03-11T01:04:31.535Z,1.77
2019-03-11T01:09:37.684Z,1.44
2019-03-11T01:14:43.707Z,1.50
2019-03-11T01:19:49.988Z,1.64
2019-03-11T01:24:56.025Z,1.26
2019-03-11T01:30:02.044Z,1.22
2019-03-11T01:35:08.082Z,1.32
2019-03-11T01:40:14.125Z,1.31
2019-03-11T01:45:20.347Z,1.99
2019-03-11T01:50:26.354Z,1.32
2019-03-11T01:55:32.608Z,1.57
2019-03-11T02:00:38.607Z,1.62
2019-03-11T02:05:44.622Z,2.63
2019-03-11T02:10:50.640Z,1.79
2019-03-11T02:15:56.635Z,1.67
2019-03-11T02:21:02.630Z,2.95
2019-03-11T02:26:08.625Z,1.85
2019-03-11T02:31:14.645Z,1.77
2019-03-11T02:36:20.646Z,2.41
2019-03-11T02:41:26.635Z,1.34
2019-03-11T02:46:32.632Z,1.44
2019-03-11T02:51:38.659Z,1.29
2019-03-11T02:56:44.751Z,1.38
2019-03-11T03:01:50.745Z,1.19
2019-03-11T03:06:56.780Z,1.06
2019-03-11T03:12:02.779Z,1.61
2019-03-11T03:17:08.800Z,1.45
2019-03-11T03:22:14.790Z,1.73
2019-03-11T03:27:20.768Z,1.25
2019-03-11T03:32:26.777Z,2.00
2019-03-11T03:37:32.793Z,1.43
2019-03-11T03:42:38.918Z,2.26
2019-03-11T03:47:44.812Z,2.44
2019-03-11T03:52:50.842Z,1.62
2019-03-11T03:57:56.869Z,1.62
2019-03-11T04:03:02.843Z,1.81
2019-03-11T04:08:08.806Z,1.80
2019-03-11T04:13:14.797Z,2.00
2019-03-11T04:18:20.818Z,2.77
2019-03-11T04:23:26.945Z,1.59
2019-03-11T04:28:32.952Z,2.15
2019-03-11T04:33:38.948Z,1.62
2019-03-11T04:38:44.978Z,1.48
2019-03-11T04:43:50.975Z,1.94
2019-03-11T04:48:57.089Z,1.31
2019-03-11T04:54:03.058Z,1.59
2019-03-11T04:59:09.101Z,2.01
2019-03-11T05:04:15.107Z,1.63
2019-03-11T05:09:22.990Z,1.61
2019-03-11T05:14:28.976Z,1.00
2019-03-11T05:19:35.606Z,0.57
2019-03-11T05:24:42.563Z,0.63
2019-03-11T05:29:49.320Z,0.54
2019-03-11T05:34:55.334Z,0.59
2019-03-11T05:40:01.394Z,0.66
2019-03-11T05:45:07.364Z,0.79
2019-03-11T05:50:13.425Z,0.75
2019-03-11T05:55:19.422Z,1.02
2019-03-11T06:00:25.404Z,1.15
2019-03-11T06:05:31.439Z,1.10
2019-03-11T06:10:37.691Z,1.41
2019-03-11T06:15:43.716Z,1.51
2019-03-11T06:20:49.970Z,0.84
2019-03-11T06:25:56.168Z,1.53
2019-03-11T06:31:02.191Z,1.11
2019-03-11T06:36:08.231Z,1.57
2019-03-11T06:41:14.231Z,1.11
2019-03-11T06:46:20.201Z,2.76
2019-03-11T06:51:26.200Z,1.69
2019-03-11T06:56:32.289Z,1.57
2019-03-11T07:01:38.333Z,1.70
2019-03-11T07:06:44.332Z,3.49
2019-03-11T07:11:50.409Z,1.75
2019-03-11T07:16:56.417Z,2.16
2019-03-11T07:22:02.437Z,1.79
2019-03-11T07:27:08.571Z,2.94
2019-03-11T07:32:14.542Z,1.92
2019-03-11T07:37:20.626Z,2.14
2019-03-11T07:42:26.552Z,2.03
2019-03-11T07:47:32.596Z,1.81
2019-03-11T07:52:38.643Z,2.16
2019-03-11T07:57:44.653Z,1.86
2019-03-11T08:02:50.714Z,1.59
2019-03-11T08:07:56.853Z,2.17
2019-03-11T08:13:02.713Z,1.19
2019-03-11T08:18:10.734Z,1.48
2019-03-11T08:23:14.263Z,1.42
2019-03-11T08:28:20.270Z,1.85
2019-03-11T08:33:26.504Z,1.88
2019-03-11T08:38:32.555Z,2.05
2019-03-11T08:43:38.548Z,2.10
2019-03-11T08:48:44.592Z,1.56
2019-03-11T08:53:50.654Z,2.33
2019-03-11T08:58:56.676Z,2.05
2019-03-11T09:04:02.683Z,1.55
2019-03-11T09:09:08.676Z,1.49
2019-03-11T09:14:14.731Z,1.72
2019-03-11T09:19:20.760Z,2.49
2019-03-11T09:24:26.753Z,1.74
2019-03-11T09:29:32.771Z,1.92
2019-03-11T09:34:38.791Z,1.81
2019-03-11T09:39:44.815Z,1.97
2019-03-11T09:44:50.913Z,1.46
2019-03-11T09:49:56.978Z,1.69
2019-03-11T09:55:03.034Z,1.85
2019-03-11T10:00:09.016Z,1.85
2019-03-11T10:05:15.075Z,1.58
2019-03-11T10:10:21.073Z,1.74
2019-03-11T10:15:27.230Z,1.48
2019-03-11T10:20:33.242Z,2.02
2019-03-11T10:25:39.330Z,2.21
2019-03-11T10:30:45.315Z,2.92
2019-03-11T10:35:51.323Z,3.00
2019-03-11T10:40:57.401Z,2.26
2019-03-11T10:46:03.438Z,2.52
2019-03-11T10:51:09.475Z,2.53
2019-03-11T10:56:15.500Z,1.46
2019-03-11T11:01:21.615Z,2.93
2019-03-11T11:06:27.682Z,2.11
2019-03-11T11:11:36.189Z,1.84
2019-03-11T11:16:39.284Z,2.66
2019-03-11T11:21:45.314Z,1.93
2019-03-11T11:26:51.325Z,1.86
2019-03-11T11:31:57.338Z,2.82
2019-03-11T11:37:03.378Z,2.10
2019-03-11T11:42:09.366Z,3.41
2019-03-11T11:47:15.386Z,1.52
2019-03-11T11:52:21.458Z,3.66
2019-03-11T11:57:27.525Z,4.68
2019-03-11T12:02:33.553Z,3.83
2019-03-11T12:07:39.606Z,3.02
2019-03-11T12:12:45.667Z,3.44
2019-03-11T12:17:51.666Z,3.14
2019-03-11T12:22:57.779Z,4.71
2019-03-11T12:28:03.791Z,4.19
2019-03-11T12:33:09.790Z,6.61
2019-03-11T12:38:15.800Z,4.28
2019-03-11T12:43:21.866Z,3.88
2019-03-11T12:48:27.925Z,1.72
2019-03-11T12:53:33.939Z,2.26
2019-03-11T12:58:41.902Z,1.56
2019-03-11T13:03:45.534Z,1.34
2019-03-11T13:08:51.552Z,1.19
2019-03-11T13:13:57.566Z,1.17
2019-03-11T13:19:12.690Z,0.98
2019-03-11T13:24:09.149Z,2.05
2019-03-11T13:29:15.438Z,1.13
2019-03-11T13:34:21.437Z,1.29
2019-03-11T13:39:27.509Z,1.92
2019-03-11T13:44:33.612Z,1.80
2019-03-11T13:49:39.682Z,1.26
2019-03-11T13:54:45.676Z,1.36
2019-03-11T13:59:51.705Z,1.35
2019-03-11T14:04:57.740Z,1.90
2019-03-11T14:10:03.793Z,1.16
2019-03-11T14:15:09.791Z,1.03
2019-03-11T14:20:15.943Z,1.04
2019-03-11T14:25:21.946Z,0.84
2019-03-11T14:30:27.985Z,1.27
2019-03-11T14:35:34.216Z,0.90
2019-03-11T14:40:40.275Z,1.48
2019-03-11T14:45:46.328Z,1.08
2019-03-11T14:50:54.909Z,0.99
2019-03-11T14:55:57.893Z,1.09
2019-03-11T15:01:03.898Z,1.19
2019-03-11T15:06:09.923Z,1.18
2019-03-11T15:11:15.958Z,0.84
2019-03-11T15:16:22.024Z,1.36
2019-03-11T15:21:27.939Z,1.10
2019-03-11T15:26:34.064Z,1.40
2019-03-11T15:31:40.138Z,1.07
2019-03-11T15:36:46.180Z,0.92
2019-03-11T15:41:52.166Z,0.91
2019-03-11T15:46:58.346Z,1.92
2019-03-11T15:52:04.406Z,1.68
2019-03-11T15:57:10.586Z,2.43
2019-03-11T16:02:16.624Z,1.60
2019-03-11T16:07:22.696Z,1.00
2019-03-11T16:12:28.732Z,1.44
2019-03-11T16:17:34.978Z,1.46
2019-03-11T16:22:41.032Z,1.63
2019-03-11T16:27:47.138Z,1.34
2019-03-11T16:32:59.485Z,2.17
2019-03-11T16:37:58.796Z,1.07
2019-03-11T16:43:04.873Z,1.01
2019-03-11T16:48:10.864Z,1.81
2019-03-11T16:53:16.899Z,0.99
2019-03-11T16:58:22.972Z,1.63
2019-03-11T17:03:29.116Z,1.52
2019-03-11T17:08:35.388Z,1.34
2019-03-11T17:13:41.446Z,1.27
2019-03-11T17:18:47.469Z,1.44
2019-03-11T17:23:53.501Z,1.87
2019-03-11T17:28:59.559Z,1.10
2019-03-11T17:34:05.558Z,1.53
2019-03-11T17:39:11.593Z,1.85
2019-03-11T17:44:17.619Z,1.58
2019-03-11T17:49:23.766Z,2.30
2019-03-11T17:54:29.847Z,1.59
2019-03-11T17:59:35.876Z,1.11
2019-03-11T18:04:41.904Z,2.13
2019-03-11T18:09:47.930Z,2.70
2019-03-11T18:14:53.963Z,1.20
2019-03-11T18:20:00.027Z,1.96
2019-03-11T18:25:06.145Z,1.67
2019-03-11T18:30:12.256Z,1.34
2019-03-11T18:35:18.320Z,1.19
2019-03-11T18:40:24.494Z,1.15
2019-03-11T18:45:30.485Z,1.18
2019-03-11T18:50:36.577Z,1.17
2019-03-11T18:55:42.598Z,0.78
2019-03-11T19:00:48.676Z,1.32
2019-03-11T19:05:54.842Z,1.17
2019-03-11T19:11:01.077Z,1.06
2019-03-11T19:16:07.217Z,1.19
2019-03-11T19:21:13.363Z,3.69
2019-03-11T19:26:19.389Z,8.09
2019-03-11T19:31:25.537Z,4.15
2019-03-11T19:36:33.564Z,2.18
2019-03-11T19:41:37.217Z,2.08
2019-03-11T19:46:43.287Z,1.77
2019-03-11T19:51:49.295Z,1.73
2019-03-11T19:56:55.433Z,1.96
2019-03-11T20:02:01.493Z,2.59
2019-03-11T20:07:07.850Z,1.71
2019-03-11T20:12:13.840Z,2.38
2019-03-11T20:17:19.967Z,1.71
2019-03-11T20:22:26.156Z,2.35
2019-03-11T20:27:32.257Z,1.43
2019-03-11T20:32:38.283Z,1.70
2019-03-11T20:37:44.302Z,1.63
2019-03-11T20:42:50.427Z,1.65
2019-03-11T20:47:56.698Z,2.44
2019-03-11T20:53:05.327Z,2.76
2019-03-11T20:58:08.109Z,1.71
2019-03-11T21:03:14.170Z,2.02
2019-03-11T21:08:20.370Z,1.93
2019-03-11T21:13:26.428Z,2.26
2019-03-11T21:18:32.543Z,2.47
2019-03-11T21:23:38.621Z,2.31
2019-03-11T21:28:44.722Z,2.35
2019-03-11T21:33:58.275Z,2.67
2019-03-11T21:38:56.432Z,2.79
2019-03-11T21:44:02.333Z,3.25
2019-03-11T21:49:08.559Z,2.46
2019-03-11T21:54:14.555Z,2.82
2019-03-11T21:59:20.875Z,4.14
2019-03-11T22:04:26.842Z,2.83
2019-03-11T22:09:32.977Z,2.73
2019-03-11T22:14:39.086Z,2.45
2019-03-11T22:19:45.132Z,2.80
2019-03-11T22:24:51.230Z,3.90
2019-03-11T22:29:57.311Z,2.69
2019-03-11T22:35:12.768Z,2.93
2019-03-11T22:40:09.007Z,2.68
2019-03-11T22:45:16.832Z,4.35
2019-03-11T22:50:20.878Z,4.09
2019-03-11T22:55:26.925Z,2.75
2019-03-11T23:00:32.992Z,2.57
2019-03-11T23:05:39.034Z,2.75
2019-03-11T23:10:45.212Z,2.55
2019-03-11T23:15:51.234Z,2.35
2019-03-11T23:20:57.259Z,3.18
2019-03-11T23:26:03.245Z,2.29
2019-03-11T23:31:09.248Z,2.18
2019-03-11T23:36:15.237Z,3.72
2019-03-11T23:41:21.241Z,2.50
2019-03-11T23:46:27.221Z,2.51
2019-03-11T23:51:33.199Z,2.37
2019-03-11T23:56:39.237Z,2.20
